Time;durP1;ratioP1;P1;durP2;ratioP2;P2;SDS_P1;SDS_P2;PMS_P1;PMS_P2;Temp;Humidity;BMP_temperature;BMP_pressure;BME280_temperature;BME280_humidity;BME280_pressure;Samples;Min_cycle;Max_cycle;Signal;HPM_P1;HPM_P2
2024/02/20 00:02:26;;;;;;;7.40;1.77;;;7.40;99.90;;;;;;4996577;28;20314;-53
2024/02/20 00:04:53;;;;;;;6.13;2.47;;;7.40;99.90;;;;;;5019786;28;20192;-53
2024/02/20 00:07:20;;;;;;;6.17;2.10;;;7.40;99.90;;;;;;5015540;28;20267;-49
2024/02/20 00:09:47;;;;;;;6.77;2.60;;;7.40;99.90;;;;;;5009833;28;20306;-52
2024/02/20 00:12:15;;;;;;;5.67;2.30;;;7.40;99.90;;;;;;5015979;28;20240;-55
2024/02/20 00:14:43;;;;;;;13.50;2.40;;;7.40;99.90;;;;;;4992014;28;20275;-52
2024/02/20 00:17:10;;;;;;;7.93;2.10;;;7.50;99.90;;;;;;5008991;28;20624;-51
2024/02/20 00:19:37;;;;;;;6.33;2.17;;;7.40;99.90;;;;;;5017658;28;20892;-52
2024/02/20 00:22:04;;;;;;;8.77;2.40;;;7.40;99.90;;;;;;5008242;28;20203;-53
2024/02/20 00:24:31;;;;;;;6.77;1.73;;;7.40;99.90;;;;;;5010148;28;20261;-55
2024/02/20 00:26:58;;;;;;;7.43;1.90;;;7.50;99.90;;;;;;5018656;28;20223;-54
2024/02/20 00:29:26;;;;;;;8.33;2.43;;;7.50;99.90;;;;;;4992798;28;20664;-54
2024/02/20 00:31:53;;;;;;;8.23;2.97;;;7.50;99.90;;;;;;5014646;28;20238;-54
2024/02/20 00:34:19;;;;;;;9.03;2.63;;;7.50;99.90;;;;;;5010523;28;20826;-54
2024/02/20 00:36:46;;;;;;;13.47;3.30;;;7.40;99.90;;;;;;5018585;28;20216;-54
2024/02/20 00:39:13;;;;;;;10.87;3.07;;;7.40;99.90;;;;;;5014455;28;20964;-52
2024/02/20 00:41:40;;;;;;;12.40;3.13;;;7.40;99.90;;;;;;5009182;28;20195;-51
2024/02/20 00:44:07;;;;;;;8.03;3.23;;;7.40;99.90;;;;;;4990600;28;20204;-54
2024/02/20 00:46:35;;;;;;;7.03;2.80;;;7.50;99.90;;;;;;5020894;28;20224;-52
2024/02/20 00:49:02;;;;;;;15.33;3.33;;;7.50;99.90;;;;;;5008873;28;20908;-52
2024/02/20 00:51:29;;;;;;;6.73;2.80;;;7.50;99.90;;;;;;5018694;28;20326;-54
2024/02/20 00:53:56;;;;;;;8.47;3.13;;;7.50;99.90;;;;;;5015992;28;20241;-55
2024/02/20 00:56:23;;;;;;;10.77;3.33;;;7.50;99.90;;;;;;5008877;28;20270;-50
2024/02/20 00:58:51;;;;;;;11.50;2.67;;;7.50;99.90;;;;;;5019072;28;20212;-55
2024/02/20 01:01:18;;;;;;;10.90;3.17;;;7.50;99.90;;;;;;4992325;28;20196;-56
2024/02/20 01:03:47;;;;;;;8.03;2.60;;;7.50;99.90;;;;;;5008970;28;20736;-53
2024/02/20 01:06:14;;;;;;;6.33;3.23;;;7.50;99.90;;;;;;5007317;28;20223;-55
2024/02/20 01:08:41;;;;;;;7.47;3.30;;;7.50;99.90;;;;;;5013971;28;20201;-50
2024/02/20 01:11:08;;;;;;;10.33;2.90;;;7.40;99.90;;;;;;5013638;28;20677;-55
2024/02/20 01:13:35;;;;;;;10.77;3.17;;;7.40;99.90;;;;;;5006248;28;20196;-50
2024/02/20 01:16:02;;;;;;;8.07;2.87;;;7.40;99.90;;;;;;4992320;28;20256;-54
2024/02/20 01:18:29;;;;;;;6.40;2.83;;;7.40;99.90;;;;;;5005162;28;20232;-50
2024/02/20 01:20:57;;;;;;;9.17;3.00;;;7.40;99.90;;;;;;5020810;28;20204;-50
2024/02/20 01:23:23;;;;;;;8.03;3.13;;;7.40;99.90;;;;;;5010070;28;20204;-55
2024/02/20 01:25:50;;;;;;;10.33;3.03;;;7.40;99.90;;;;;;5014193;28;20258;-55
2024/02/20 01:28:17;;;;;;;11.70;2.93;;;7.40;99.90;;;;;;5005557;28;20200;-55
2024/02/20 01:30:44;;;;;;;5.80;2.47;;;7.40;99.90;;;;;;5014442;28;20215;-54
2024/02/20 01:33:12;;;;;;;9.90;2.70;;;7.40;99.90;;;;;;4989958;28;20269;-56
2024/02/20 01:35:41;;;;;;;10.03;3.17;;;7.40;99.90;;;;;;5012432;28;20226;-53
2024/02/20 01:38:10;;;;;;;15.33;3.87;;;7.30;99.90;;;;;;5015050;28;20262;-52
2024/02/20 01:40:38;;;;;;;6.43;3.50;;;7.40;99.90;;;;;;5014023;28;20192;-52
2024/02/20 01:43:06;;;;;;;6.87;3.90;;;7.40;99.90;;;;;;5011692;28;20210;-55
2024/02/20 01:45:33;;;;;;;7.93;3.23;;;7.40;99.90;;;;;;5017042;28;21198;-52
2024/02/20 01:48:02;;;;;;;11.27;3.90;;;7.40;99.90;;;;;;4995597;28;20297;-51
2024/02/20 01:50:30;;;;;;;9.13;3.07;;;7.40;99.90;;;;;;5006774;28;20220;-50
2024/02/20 01:52:58;;;;;;;5.53;2.70;;;7.40;99.90;;;;;;5018902;28;20208;-53
2024/02/20 01:55:27;;;;;;;9.87;2.70;;;7.30;99.90;;;;;;5012968;28;20199;-50
2024/02/20 01:57:54;;;;;;;8.30;2.40;;;7.30;99.90;;;;;;5007891;28;20226;-54
2024/02/20 02:00:22;;;;;;;5.60;2.50;;;7.30;99.90;;;;;;5011473;28;20208;-55
2024/02/20 02:02:49;;;;;;;7.87;2.40;;;7.30;99.90;;;;;;4992685;28;20212;-52
2024/02/20 02:05:16;;;;;;;7.73;2.63;;;7.20;99.90;;;;;;5010263;28;20283;-56
2024/02/20 02:07:43;;;;;;;6.63;2.33;;;7.30;99.90;;;;;;5014394;28;20279;-53
2024/02/20 02:10:10;;;;;;;5.87;1.63;;;7.30;99.90;;;;;;5005724;28;20208;-52
2024/02/20 02:12:38;;;;;;;6.80;1.93;;;7.30;99.90;;;;;;5015228;28;20279;-55
2024/02/20 02:15:07;;;;;;;13.50;1.70;;;7.30;99.90;;;;;;5011779;28;20247;-55
2024/02/20 02:17:34;;;;;;;10.33;1.90;;;7.30;99.90;;;;;;5016123;28;20219;-52
2024/02/20 02:20:02;;;;;;;5.70;1.80;;;7.30;99.90;;;;;;4995569;28;20239;-55
2024/02/20 02:22:28;;;;;;;6.83;1.87;;;7.30;99.90;;;;;;5009896;28;20227;-52
2024/02/20 02:24:55;;;;;;;10.37;2.10;;;7.20;99.90;;;;;;5018795;28;20208;-51
2024/02/20 02:27:23;;;;;;;7.67;1.93;;;7.20;99.90;;;;;;5012647;28;20234;-50
2024/02/20 02:29:50;;;;;;;7.20;2.00;;;7.20;99.90;;;;;;5005403;28;20258;-51
2024/02/20 02:32:18;;;;;;;14.13;2.20;;;7.20;99.90;;;;;;5017290;28;20250;-53
2024/02/20 02:34:46;;;;;;;11.37;2.13;;;7.20;99.90;;;;;;4994369;28;20217;-51
2024/02/20 02:37:12;;;;;;;11.40;2.20;;;7.20;99.90;;;;;;5002756;28;20231;-54
2024/02/20 02:39:39;;;;;;;10.07;2.17;;;7.20;99.90;;;;;;5020039;28;20196;-53
2024/02/20 02:42:07;;;;;;;21.17;3.63;;;7.20;99.90;;;;;;5021220;28;20246;-55
2024/02/20 02:44:35;;;;;;;24.47;4.33;;;7.20;99.90;;;;;;5011869;28;22769;-50
2024/02/20 02:47:03;;;;;;;15.40;3.50;;;7.20;99.90;;;;;;5022310;28;20234;-53
2024/02/20 02:49:30;;;;;;;23.77;4.27;;;7.10;99.90;;;;;;4996064;28;20200;-48
2024/02/20 02:51:57;;;;;;;24.73;3.37;;;7.20;99.90;;;;;;5014203;28;20211;-51
2024/02/20 02:54:25;;;;;;;19.37;3.43;;;7.10;99.90;;;;;;5008645;28;20200;-53
2024/02/20 02:56:52;;;;;;;25.67;4.67;;;7.10;99.90;;;;;;5020325;28;20603;-53
2024/02/20 02:59:18;;;;;;;27.33;4.03;;;7.10;99.90;;;;;;5014501;28;20905;-51
2024/02/20 03:01:47;;;;;;;17.90;4.00;;;7.10;99.90;;;;;;5011150;28;20192;-51
2024/02/20 03:04:14;;;;;;;30.13;6.27;;;7.10;99.90;;;;;;4994091;28;20612;-55
2024/02/20 03:06:41;;;;;;;21.80;3.80;;;7.10;99.90;;;;;;5010401;28;20249;-51
2024/02/20 03:09:12;;;;;;;19.23;3.40;;;7.10;99.90;;;;;;5008780;28;20829;-53
2024/02/20 03:11:39;;;;;;;23.53;3.67;;;7.00;99.90;;;;;;5014250;28;20232;-52
2024/02/20 03:14:06;;;;;;;21.13;4.47;;;7.10;99.90;;;;;;5014828;28;20266;-52
2024/02/20 03:16:33;;;;;;;22.53;4.13;;;7.00;99.90;;;;;;5008585;28;20234;-51
2024/02/20 03:19:03;;;;;;;21.60;4.20;;;7.00;99.90;;;;;;5012650;28;20223;-55
2024/02/20 03:21:30;;;;;;;22.67;4.27;;;6.90;99.90;;;;;;4991676;28;20207;-50
2024/02/20 03:23:57;;;;;;;19.03;4.17;;;6.90;99.90;;;;;;5017219;28;20210;-49
2024/02/20 03:26:26;;;;;;;17.50;3.90;;;6.90;99.90;;;;;;5008246;28;20220;-49
2024/02/20 03:28:53;;;;;;;14.23;3.10;;;6.90;99.90;;;;;;5014848;28;20640;-48
2024/02/20 03:31:20;;;;;;;9.03;3.13;;;6.90;99.90;;;;;;5002305;28;20222;-53
2024/02/20 03:33:47;;;;;;;25.50;5.00;;;6.90;99.90;;;;;;5015195;28;20207;-48
2024/02/20 03:36:16;;;;;;;16.57;3.47;;;6.90;99.90;;;;;;4989228;28;20302;-55
2024/02/20 03:38:42;;;;;;;17.83;3.57;;;6.90;99.90;;;;;;5008123;28;20217;-51
2024/02/20 03:41:10;;;;;;;19.17;3.83;;;6.90;99.90;;;;;;5007489;28;20269;-54
2024/02/20 03:43:37;;;;;;;18.97;4.50;;;6.80;99.90;;;;;;5017646;28;20188;-48
2024/02/20 03:46:05;;;;;;;17.50;3.57;;;6.90;99.90;;;;;;5020555;28;20224;-52
2024/02/20 03:48:32;;;;;;;17.57;3.90;;;6.80;99.90;;;;;;5010529;28;20361;-55
2024/02/20 03:51:00;;;;;;;17.07;3.83;;;6.80;99.90;;;;;;4995205;28;20308;-54
2024/02/20 03:53:28;;;;;;;18.30;3.50;;;6.80;99.90;;;;;;5004739;28;20283;-54
2024/02/20 03:55:55;;;;;;;20.97;2.77;;;6.90;99.90;;;;;;5011990;28;20259;-52
2024/02/20 03:58:22;;;;;;;17.53;3.53;;;6.90;99.90;;;;;;5015694;28;20204;-54
2024/02/20 04:00:49;;;;;;;22.90;3.20;;;6.80;99.90;;;;;;5020617;28;20200;-55
2024/02/20 04:03:16;;;;;;;17.03;3.27;;;6.80;99.90;;;;;;5008297;28;20199;-54
2024/02/20 04:05:43;;;;;;;21.77;3.30;;;6.80;99.90;;;;;;4994056;28;20222;-53
2024/02/20 04:08:10;;;;;;;19.63;3.73;;;6.80;99.90;;;;;;5012259;28;20203;-53
2024/02/20 04:10:38;;;;;;;15.90;3.47;;;6.80;99.90;;;;;;5017047;28;20207;-52
2024/02/20 04:13:05;;;;;;;17.57;3.13;;;6.80;99.90;;;;;;5008783;28;20207;-55
2024/02/20 04:15:32;;;;;;;23.07;3.90;;;6.70;99.90;;;;;;5007817;28;20281;-53
2024/02/20 04:17:59;;;;;;;18.40;3.40;;;6.70;99.90;;;;;;5000982;28;20196;-53
2024/02/20 04:20:25;;;;;;;20.20;3.43;;;6.80;99.90;;;;;;5012148;28;20204;-54
2024/02/20 04:22:52;;;;;;;14.10;3.63;;;6.80;99.90;;;;;;4989172;28;20664;-55
2024/02/20 04:25:19;;;;;;;15.60;3.33;;;6.80;99.90;;;;;;5008046;28;20262;-50
2024/02/20 04:27:47;;;;;;;20.23;2.93;;;6.80;99.90;;;;;;5009432;28;20261;-54
2024/02/20 04:30:14;;;;;;;14.50;4.00;;;6.80;99.90;;;;;;4998831;28;20355;-52
2024/02/20 04:32:41;;;;;;;19.17;3.13;;;6.70;99.90;;;;;;5014832;28;20192;-55
2024/02/20 04:35:09;;;;;;;14.03;3.00;;;6.80;99.90;;;;;;5009249;28;20290;-53
2024/02/20 04:37:37;;;;;;;23.17;3.57;;;6.80;99.90;;;;;;4992071;28;20224;-53
2024/02/20 04:40:07;;;;;;;22.03;3.40;;;6.80;99.90;;;;;;5012131;28;20295;-52
2024/02/20 04:42:34;;;;;;;24.77;4.37;;;6.80;99.90;;;;;;5004670;28;20211;-55
2024/02/20 04:45:01;;;;;;;26.17;3.57;;;6.80;99.90;;;;;;5013701;28;20254;-52
2024/02/20 04:47:28;;;;;;;19.33;3.83;;;6.80;99.90;;;;;;5012808;28;20846;-53
2024/02/20 04:49:55;;;;;;;19.40;3.73;;;6.90;99.90;;;;;;5007343;28;20214;-52
2024/02/20 04:52:21;;;;;;;19.00;4.27;;;6.80;99.90;;;;;;4995037;28;20211;-52
2024/02/20 04:54:48;;;;;;;25.10;4.37;;;6.80;99.90;;;;;;5008997;28;20211;-54
2024/02/20 04:57:15;;;;;;;24.60;4.10;;;6.90;99.90;;;;;;5006698;28;20220;-54
2024/02/20 04:59:42;;;;;;;24.27;4.73;;;6.90;99.90;;;;;;5014165;28;20780;-54
2024/02/20 05:02:10;;;;;;;26.53;4.40;;;6.90;99.90;;;;;;5012377;28;20273;-51
2024/02/20 05:04:37;;;;;;;17.93;4.23;;;6.90;99.90;;;;;;5009152;28;20219;-52
2024/02/20 05:07:04;;;;;;;28.63;4.73;;;6.90;99.90;;;;;;4999702;28;22871;-53
2024/02/20 05:09:31;;;;;;;18.17;4.10;;;6.90;99.90;;;;;;4995473;28;20567;-53
2024/02/20 05:11:59;;;;;;;21.17;4.30;;;6.90;99.90;;;;;;5007607;28;20200;-55
2024/02/20 05:14:27;;;;;;;30.30;4.43;;;6.90;99.90;;;;;;5009613;28;20208;-52
2024/02/20 05:16:54;;;;;;;27.27;4.67;;;6.90;99.90;;;;;;5013866;28;20294;-52
2024/02/20 05:19:22;;;;;;;28.10;4.83;;;6.90;99.90;;;;;;5015312;28;20220;-53
2024/02/20 05:21:49;;;;;;;32.13;5.87;;;6.90;99.90;;;;;;5002972;28;20211;-50
2024/02/20 05:24:16;;;;;;;27.23;5.13;;;6.90;99.90;;;;;;4989603;28;20681;-54
2024/02/20 05:26:43;;;;;;;29.17;4.33;;;6.90;99.90;;;;;;5006002;28;20220;-52
2024/02/20 05:29:10;;;;;;;17.63;4.57;;;6.90;99.90;;;;;;5007618;28;20207;-53
2024/02/20 05:31:37;;;;;;;26.57;5.00;;;6.90;99.90;;;;;;5011005;28;20669;-52
2024/02/20 05:34:04;;;;;;;19.97;4.60;;;6.90;99.90;;;;;;5016248;28;21078;-55
2024/02/20 05:36:33;;;;;;;32.03;5.67;;;6.90;99.90;;;;;;5018094;28;20220;-54
2024/02/20 05:39:00;;;;;;;28.57;5.47;;;6.90;99.90;;;;;;4984092;28;20216;-55
2024/02/20 05:41:28;;;;;;;33.03;5.47;;;6.90;99.90;;;;;;5012536;28;20207;-52
2024/02/20 05:43:57;;;;;;;28.17;5.03;;;6.90;99.90;;;;;;4994034;28;20207;-53
2024/02/20 05:46:26;;;;;;;32.63;5.30;;;7.00;99.90;;;;;;5016259;28;20219;-54
2024/02/20 05:48:53;;;;;;;45.47;5.83;;;7.00;99.90;;;;;;5014141;28;20874;-54
2024/02/20 05:51:20;;;;;;;41.77;6.27;;;7.00;99.90;;;;;;5015922;28;20669;-53
2024/02/20 05:53:49;;;;;;;29.97;5.20;;;7.00;99.90;;;;;;5012492;28;20265;-55
2024/02/20 05:56:16;;;;;;;31.00;6.00;;;7.00;99.90;;;;;;4987319;28;20231;-55
2024/02/20 05:58:43;;;;;;;33.87;6.27;;;7.00;99.90;;;;;;5016734;28;20239;-53
2024/02/20 06:01:11;;;;;;;30.37;5.60;;;7.00;99.90;;;;;;5002034;28;20269;-55
2024/02/20 06:03:38;;;;;;;31.73;5.47;;;7.00;99.90;;;;;;5024076;28;20203;-54
2024/02/20 06:06:06;;;;;;;31.80;5.03;;;7.00;99.90;;;;;;5014419;28;20234;-55
2024/02/20 06:08:34;;;;;;;29.43;5.00;;;7.00;99.90;;;;;;5012196;28;20299;-55
2024/02/20 06:11:02;;;;;;;31.87;6.77;;;7.00;99.90;;;;;;4998495;28;20216;-55
2024/02/20 06:13:29;;;;;;;34.77;5.67;;;7.00;99.90;;;;;;5020543;28;20660;-56
2024/02/20 06:15:56;;;;;;;38.03;6.00;;;7.00;99.90;;;;;;5013511;28;20238;-53
2024/02/20 06:18:22;;;;;;;34.60;6.60;;;7.00;99.90;;;;;;5019520;28;20667;-55
2024/02/20 06:20:49;;;;;;;33.63;5.37;;;7.00;99.90;;;;;;5010257;28;20227;-55
2024/02/20 06:23:16;;;;;;;34.93;6.40;;;7.00;99.90;;;;;;5007472;28;20204;-53
2024/02/20 06:25:43;;;;;;;36.13;5.20;;;7.00;99.90;;;;;;5013408;28;20223;-54
2024/02/20 06:28:14;;;;;;;29.87;4.67;;;7.00;99.90;;;;;;4991096;28;20200;-54
2024/02/20 06:30:41;;;;;;;31.73;5.13;;;7.00;99.90;;;;;;5021800;28;20681;-54
2024/02/20 06:33:08;;;;;;;31.90;4.73;;;7.00;99.90;;;;;;5011977;28;20461;-52
2024/02/20 06:35:35;;;;;;;24.87;4.37;;;7.00;99.90;;;;;;5011127;28;20262;-51
2024/02/20 06:38:02;;;;;;;32.00;5.27;;;6.90;99.90;;;;;;5002701;28;20216;-54
2024/02/20 06:40:29;;;;;;;32.50;5.33;;;7.00;99.90;;;;;;5007183;28;20266;-54
2024/02/20 06:42:56;;;;;;;25.27;4.67;;;7.00;99.90;;;;;;4994361;28;20200;-52
2024/02/20 06:45:24;;;;;;;26.23;5.50;;;7.00;99.90;;;;;;5021234;28;20208;-53
2024/02/20 06:47:51;;;;;;;38.27;6.10;;;7.00;99.90;;;;;;5005916;28;20387;-53
2024/02/20 06:50:18;;;;;;;28.10;5.60;;;7.00;99.90;;;;;;5019300;28;20250;-49
2024/02/20 06:52:44;;;;;;;30.73;5.47;;;7.00;99.90;;;;;;5007531;28;20204;-53
2024/02/20 06:55:11;;;;;;;25.57;4.67;;;7.00;99.90;;;;;;4999802;28;20223;-54
2024/02/20 06:57:39;;;;;;;28.70;4.77;;;7.00;99.90;;;;;;4995685;28;20231;-51
2024/02/20 07:00:11;;;;;;;25.87;4.80;;;7.10;99.90;;;;;;5015587;28;20224;-53
2024/02/20 07:02:41;;;;;;;28.90;4.73;;;7.10;99.90;;;;;;5011468;28;20223;-53
2024/02/20 07:05:10;;;;;;;36.60;6.70;;;7.10;99.90;;;;;;5012061;28;20247;-54
2024/02/20 07:07:37;;;;;;;33.60;5.80;;;7.10;99.90;;;;;;5012074;28;20763;-50
2024/02/20 07:10:06;;;;;;;29.67;5.20;;;7.10;99.90;;;;;;5015546;28;20250;-50
2024/02/20 07:12:33;;;;;;;25.17;4.33;;;7.10;99.90;;;;;;5014996;28;20935;-53
2024/02/20 07:15:01;;;;;;;35.97;5.13;;;7.10;99.90;;;;;;4995697;28;20244;-50
2024/02/20 07:17:28;;;;;;;26.53;4.27;;;7.10;99.90;;;;;;5002972;28;21008;-49
2024/02/20 07:19:56;;;;;;;26.70;4.07;;;7.10;99.90;;;;;;5008927;28;20227;-53
2024/02/20 07:22:24;;;;;;;30.17;4.20;;;7.20;99.90;;;;;;5007858;28;20259;-50
2024/02/20 07:24:51;;;;;;;30.67;5.50;;;7.10;99.90;;;;;;5011571;28;20208;-53
2024/02/20 07:27:18;;;;;;;23.73;5.17;;;7.20;99.90;;;;;;4996327;28;20250;-52
2024/02/20 07:29:46;;;;;;;26.17;5.83;;;7.20;99.90;;;;;;4990904;28;20287;-54
2024/02/20 07:32:13;;;;;;;31.40;5.03;;;7.20;99.90;;;;;;5011139;28;20461;-50
2024/02/20 07:34:40;;;;;;;25.37;5.00;;;7.30;99.90;;;;;;5005203;28;20200;-51
2024/02/20 07:37:09;;;;;;;34.07;5.47;;;7.30;99.90;;;;;;5013235;28;20905;-51
2024/02/20 07:39:36;;;;;;;21.43;4.83;;;7.30;99.90;;;;;;5003425;28;20776;-53
2024/02/20 07:42:04;;;;;;;28.60;5.07;;;7.30;99.90;;;;;;5003171;28;20204;-51
2024/02/20 07:44:31;;;;;;;22.10;4.90;;;7.30;99.90;;;;;;4987858;28;20215;-50
2024/02/20 07:46:57;;;;;;;25.67;4.77;;;7.40;99.90;;;;;;5008160;28;20343;-52
2024/02/20 07:49:24;;;;;;;22.30;4.50;;;7.30;99.90;;;;;;5009111;28;20679;-51
2024/02/20 07:51:51;;;;;;;34.73;5.23;;;7.40;99.90;;;;;;4993818;28;20659;-51
2024/02/20 07:54:20;;;;;;;20.10;4.73;;;7.40;99.90;;;;;;5007034;28;20216;-47
2024/02/20 07:56:47;;;;;;;29.93;5.20;;;7.40;99.90;;;;;;5008282;28;21061;-48
2024/02/20 07:59:16;;;;;;;26.23;4.50;;;7.40;99.90;;;;;;5005846;28;20200;-50
2024/02/20 08:01:49;;;;;;;25.50;5.57;;;7.40;99.90;;;;;;5002216;28;20203;-50
2024/02/20 08:04:17;;;;;;;23.70;5.00;;;7.50;99.90;;;;;;5004891;28;20210;-52
2024/02/20 08:06:50;;;;;;;24.13;4.53;;;7.50;99.90;;;;;;5013143;28;20223;-53
2024/02/20 08:09:17;;;;;;;30.10;5.50;;;7.50;99.90;;;;;;5008321;28;20200;-50
2024/02/20 08:11:46;;;;;;;27.30;4.43;;;7.50;99.90;;;;;;5009274;28;20969;-49
2024/02/20 08:14:15;;;;;;;18.00;3.53;;;7.50;99.90;;;;;;5013010;28;20200;-51
2024/02/20 08:16:46;;;;;;;25.23;5.37;;;7.50;99.90;;;;;;4997963;28;20219;-47
2024/02/20 08:19:14;;;;;;;27.63;5.57;;;7.50;99.90;;;;;;4991732;28;20204;-50
2024/02/20 08:21:45;;;;;;;23.53;4.53;;;7.50;99.90;;;;;;5009300;28;20211;-52
2024/02/20 08:24:16;;;;;;;28.00;4.60;;;7.50;99.90;;;;;;5010877;28;20212;-49
2024/02/20 08:26:46;;;;;;;29.37;4.73;;;7.50;99.90;;;;;;4999499;28;20232;-49
2024/02/20 08:29:18;;;;;;;28.53;4.83;;;7.60;99.90;;;;;;5019263;28;20291;-50
2024/02/20 08:31:46;;;;;;;19.93;3.67;;;7.70;99.90;;;;;;5006220;28;20218;-50
2024/02/20 08:34:15;;;;;;;28.93;4.90;;;7.70;99.90;;;;;;5004078;28;20223;-49
2024/02/20 08:36:45;;;;;;;23.23;3.83;;;7.80;99.90;;;;;;5007939;28;21375;-49
2024/02/20 08:39:13;;;;;;;26.43;4.57;;;7.80;99.90;;;;;;5014344;28;20203;-47
2024/02/20 08:41:51;;;;;;;22.67;3.93;;;7.80;99.90;;;;;;5012990;28;20208;-49
2024/02/20 08:44:20;;;;;;;27.00;4.63;;;7.80;99.90;;;;;;5012802;28;20678;-52
2024/02/20 08:46:47;;;;;;;17.97;4.13;;;7.90;99.90;;;;;;4983927;28;20223;-48
2024/02/20 08:49:15;;;;;;;26.37;4.60;;;7.90;99.90;;;;;;5012692;28;20281;-53
2024/02/20 08:51:44;;;;;;;17.83;4.60;;;7.90;99.90;;;;;;5016202;28;20223;-47
2024/02/20 08:54:11;;;;;;;27.13;4.50;;;8.00;99.90;;;;;;5004112;28;20271;-55
2024/02/20 08:56:42;;;;;;;22.27;4.80;;;8.00;99.90;;;;;;5009026;28;20220;-48
2024/02/20 08:59:10;;;;;;;24.03;4.40;;;8.10;99.90;;;;;;5013154;28;20204;-50
2024/02/20 09:01:40;;;;;;;27.83;4.60;;;8.10;99.90;;;;;;4985784;28;21118;-49
2024/02/20 09:04:13;;;;;;;19.47;4.17;;;8.20;99.90;;;;;;5023549;28;20299;-49
2024/02/20 09:06:48;;;;;;;26.33;4.70;;;8.30;99.90;;;;;;5009770;28;20948;-50
2024/02/20 09:09:16;;;;;;;12.70;3.90;;;8.40;99.90;;;;;;5003911;28;20215;-53
2024/02/20 09:11:47;;;;;;;17.37;4.30;;;8.30;99.90;;;;;;5010817;28;20195;-53
2024/02/20 09:14:20;;;;;;;24.83;4.20;;;8.40;99.90;;;;;;5008106;28;20208;-54
2024/02/20 09:17:00;;;;;;;19.80;4.30;;;8.40;99.90;;;;;;5016606;28;20222;-51
2024/02/20 09:19:28;;;;;;;28.70;5.10;;;8.40;99.90;;;;;;4992604;28;20897;-49
2024/02/20 09:22:01;;;;;;;20.20;5.30;;;8.40;99.90;;;;;;5016943;28;20211;-48
2024/02/20 09:24:31;;;;;;;20.03;4.73;;;8.50;99.90;;;;;;5004075;28;20204;-47
2024/02/20 09:27:01;;;;;;;19.33;3.83;;;8.60;99.90;;;;;;5010214;28;20511;-47
2024/02/20 09:29:31;;;;;;;22.33;3.87;;;8.60;99.90;;;;;;5015077;28;20686;-49
2024/02/20 09:32:03;;;;;;;18.07;4.10;;;8.60;99.90;;;;;;5021952;28;20860;-51
2024/02/20 09:34:34;;;;;;;16.57;3.40;;;8.60;99.90;;;;;;4996397;28;20211;-55
2024/02/20 09:37:05;;;;;;;21.50;4.33;;;8.60;99.90;;;;;;5011720;28;21323;-50
2024/02/20 09:39:33;;;;;;;17.63;4.27;;;8.60;99.90;;;;;;5007490;28;20195;-54
2024/02/20 09:42:07;;;;;;;18.33;3.50;;;8.70;99.90;;;;;;5006544;28;20200;-54
2024/02/20 09:44:41;;;;;;;15.37;3.47;;;8.70;99.90;;;;;;5019560;28;20192;-54
2024/02/20 09:47:15;;;;;;;14.97;3.97;;;8.70;99.90;;;;;;5018777;28;20262;-50
2024/02/20 09:49:57;;;;;;;13.30;4.10;;;8.70;99.90;;;;;;4993567;28;20194;-57
2024/02/20 09:52:30;;;;;;;17.67;3.70;;;8.70;99.90;;;;;;5014188;28;20279;-50
2024/02/20 09:55:03;;;;;;;21.13;4.23;;;8.70;99.90;;;;;;5011138;28;20200;-55
2024/02/20 09:57:35;;;;;;;20.47;4.47;;;8.80;99.90;;;;;;5015041;28;20298;-52
2024/02/20 10:00:03;;;;;;;20.97;4.67;;;8.80;99.90;;;;;;5009648;28;21071;-51
2024/02/20 10:02:54;;;;;;;17.20;3.83;;;8.70;99.90;;;;;;5017623;28;20222;-54
2024/02/20 10:05:24;;;;;;;19.87;5.40;;;8.80;99.90;;;;;;4984948;28;20200;-54
2024/02/20 10:08:02;;;;;;;22.87;4.77;;;8.80;99.90;;;;;;5011129;28;20285;-52
2024/02/20 10:10:35;;;;;;;16.63;4.60;;;8.70;99.90;;;;;;5019276;28;20674;-49
2024/02/20 10:13:06;;;;;;;17.83;4.43;;;8.70;99.90;;;;;;5004034;28;21011;-54
2024/02/20 10:15:37;;;;;;;17.43;4.50;;;8.80;99.90;;;;;;5014752;28;20659;-52
2024/02/20 10:18:09;;;;;;;16.27;4.80;;;8.80;99.90;;;;;;5015846;28;20199;-50
2024/02/20 10:20:43;;;;;;;8.17;3.23;;;8.70;99.90;;;;;;4996035;28;20996;-53
2024/02/20 10:23:13;;;;;;;29.07;5.57;;;8.70;99.90;;;;;;5013877;28;20204;-53
2024/02/20 10:25:42;;;;;;;15.43;4.97;;;8.70;99.90;;;;;;5018362;28;20303;-52
2024/02/20 10:28:10;;;;;;;17.83;4.50;;;8.80;99.90;;;;;;5001663;28;20346;-52
2024/02/20 10:30:38;;;;;;;11.67;4.33;;;8.80;99.90;;;;;;5016942;28;20754;-52
2024/02/20 10:33:11;;;;;;;15.80;4.97;;;8.70;99.90;;;;;;5002835;28;20290;-54
2024/02/20 10:35:47;;;;;;;14.17;5.10;;;8.70;99.90;;;;;;4992599;28;20340;-53
2024/02/20 10:38:21;;;;;;;20.03;4.57;;;8.60;99.90;;;;;;5012056;28;20203;-51
2024/02/20 10:40:49;;;;;;;18.93;4.90;;;8.70;99.90;;;;;;5014026;28;20220;-50
2024/02/20 10:43:18;;;;;;;20.70;5.50;;;8.70;99.90;;;;;;4996211;28;20204;-53
2024/02/20 10:45:51;;;;;;;21.80;4.57;;;8.70;99.90;;;;;;5014752;28;20216;-52
2024/02/20 10:48:29;;;;;;;15.27;4.30;;;8.80;99.90;;;;;;5008339;28;20203;-48
2024/02/20 10:51:00;;;;;;;14.83;4.43;;;8.80;99.90;;;;;;4993683;28;20197;-50
2024/02/20 10:53:29;;;;;;;18.73;5.57;;;8.60;99.90;;;;;;5015886;28;20199;-52
2024/02/20 10:56:04;;;;;;;15.13;4.90;;;8.50;99.90;;;;;;5018729;28;20224;-52
2024/02/20 10:58:39;;;;;;;13.50;4.93;;;8.60;99.90;;;;;;5005541;28;20670;-54
2024/02/20 11:01:11;;;;;;;20.10;5.73;;;8.50;99.90;;;;;;5008609;28;20216;-51
2024/02/20 11:03:46;;;;;;;22.57;6.10;;;8.50;99.90;;;;;;5012535;28;20210;-50
2024/02/20 11:06:17;;;;;;;20.87;5.73;;;8.50;99.90;;;;;;4990271;28;20386;-52
2024/02/20 11:08:50;;;;;;;14.50;4.73;;;8.40;99.90;;;;;;5004735;28;20366;-54
2024/02/20 11:14:34;;;;;;;20.30;4.77;;;8.40;99.90;;;;;;5010355;28;20370;-53
2024/02/20 11:17:22;;;;;;;15.23;5.10;;;8.40;99.90;;;;;;5009645;28;20244;-51
2024/02/20 11:19:51;;;;;;;19.60;5.40;;;8.40;99.90;;;;;;4985848;28;20737;-52
2024/02/20 11:22:26;;;;;;;13.63;5.37;;;8.50;99.90;;;;;;4914477;28;20245;-51
2024/02/20 11:25:04;;;;;;;14.37;5.23;;;8.60;99.90;;;;;;4940793;28;20284;-53
2024/02/20 11:27:38;;;;;;;17.33;5.67;;;8.60;99.90;;;;;;4961777;28;20237;-49
2024/02/20 11:30:10;;;;;;;15.13;4.70;;;8.60;99.90;;;;;;4942700;28;20206;-49
2024/02/20 11:32:36;;;;;;;21.67;4.80;;;8.60;99.90;;;;;;4950607;28;20228;-54
2024/02/20 11:35:18;;;;;;;13.57;5.07;;;8.70;99.90;;;;;;4957395;28;20257;-53
2024/02/20 11:37:47;;;;;;;18.23;5.97;;;8.80;99.90;;;;;;4934005;28;20228;-54
2024/02/20 11:40:22;;;;;;;13.93;5.10;;;8.90;99.90;;;;;;4957271;28;20206;-52
2024/02/20 11:42:49;;;;;;;15.17;4.37;;;8.90;99.90;;;;;;4957543;28;20201;-55
2024/02/20 11:45:19;;;;;;;10.83;3.60;;;9.00;99.90;;;;;;4948567;28;20549;-55
2024/02/20 11:47:57;;;;;;;13.57;3.40;;;9.00;99.90;;;;;;4943121;28;20986;-52
2024/02/20 11:50:27;;;;;;;14.57;3.67;;;9.10;99.90;;;;;;4955103;28;20265;-51
2024/02/20 11:53:14;;;;;;;10.97;3.70;;;9.10;99.90;;;;;;4962196;28;20189;-54
2024/02/20 11:55:49;;;;;;;13.17;3.63;;;9.10;99.90;;;;;;4912579;28;20921;-54
2024/02/20 11:58:21;;;;;;;12.37;3.97;;;9.20;99.90;;;;;;4958219;28;20224;-53
2024/02/20 12:01:01;;;;;;;14.83;4.00;;;9.20;99.90;;;;;;4948643;28;20222;-53
2024/02/20 12:03:36;;;;;;;12.40;3.40;;;9.20;99.90;;;;;;4951557;28;20224;-51
2024/02/20 12:06:08;;;;;;;13.47;4.13;;;9.20;99.90;;;;;;4955815;28;20221;-53
2024/02/20 12:08:53;;;;;;;16.10;3.77;;;9.20;99.90;;;;;;4958673;28;20202;-49
2024/02/20 12:11:29;;;;;;;11.83;3.53;;;9.20;99.90;;;;;;4919537;28;20846;-50
2024/02/20 12:14:01;;;;;;;12.63;3.07;;;9.30;99.90;;;;;;4960990;28;20964;-55
2024/02/20 12:16:36;;;;;;;21.17;4.27;;;9.30;99.90;;;;;;4951158;28;20316;-53
2024/02/20 12:19:12;;;;;;;9.93;3.87;;;9.40;99.90;;;;;;4946073;28;20214;-54
2024/02/20 12:22:01;;;;;;;16.30;4.17;;;9.40;99.90;;;;;;4953868;28;20284;-52
2024/02/20 12:24:29;;;;;;;14.50;3.60;;;9.40;99.90;;;;;;4962039;28;20194;-53
2024/02/20 12:26:59;;;;;;;16.63;4.23;;;9.60;99.90;;;;;;4922075;28;20591;-54
2024/02/20 12:29:37;;;;;;;12.13;3.50;;;9.60;99.90;;;;;;4962544;28;20692;-50
2024/02/20 12:32:08;;;;;;;11.33;3.90;;;9.60;99.90;;;;;;4947277;28;20475;-52
2024/02/20 12:34:35;;;;;;;15.70;3.90;;;9.60;99.90;;;;;;4954119;28;20212;-54
2024/02/20 12:37:08;;;;;;;13.37;3.43;;;9.60;99.90;;;;;;4952251;28;20222;-54
2024/02/20 12:39:37;;;;;;;15.53;3.93;;;9.60;99.90;;;;;;4951952;28;20727;-52
2024/02/20 12:42:09;;;;;;;16.00;4.10;;;9.60;99.90;;;;;;4919525;28;20947;-54
2024/02/20 12:44:37;;;;;;;13.30;3.40;;;9.60;99.90;;;;;;4974818;28;20190;-50
2024/02/20 12:47:10;;;;;;;14.83;3.53;;;9.50;99.90;;;;;;4948538;28;20229;-52
2024/02/20 12:49:38;;;;;;;16.60;4.43;;;9.50;99.90;;;;;;4959835;28;20206;-53
2024/02/20 12:52:07;;;;;;;18.60;4.43;;;9.50;99.90;;;;;;4958265;28;20506;-54
2024/02/20 12:54:36;;;;;;;17.50;4.23;;;9.50;99.90;;;;;;4960851;28;20221;-53
2024/02/20 12:57:07;;;;;;;16.00;3.73;;;9.50;99.90;;;;;;4918887;28;20229;-54
2024/02/20 12:59:41;;;;;;;15.83;3.90;;;9.50;99.90;;;;;;4960318;28;20190;-50
2024/02/20 13:02:15;;;;;;;18.53;4.20;;;9.50;99.90;;;;;;4950581;28;21006;-51